Time;durP1;ratioP1;P1;durP2;ratioP2;P2;SDS_P1;SDS_P2;PMS_P1;PMS_P2;Temp;Humidity;BMP_temperature;BMP_pressure;BME280_temperature;BME280_humidity;BME280_pressure;Samples;Min_cycle;Max_cycle;Signal;HPM_P1;HPM_P2
2023/12/19 00:00:42;;;;;;;55.10;26.23;;;;;;;;;;5003526;28;20050;-70
2023/12/19 00:03:08;;;;;;;52.83;24.00;;;;;;;;;;4984575;28;20050;-70
2023/12/19 00:05:34;;;;;;;54.63;23.33;;;;;;;;;;4985724;28;20088;-70
2023/12/19 00:08:00;;;;;;;55.15;24.65;;;;;;;;;;4985678;28;20042;-70
2023/12/19 00:10:26;;;;;;;48.00;24.77;;;;;;;;;;4985717;28;20104;-70
2023/12/19 00:12:52;;;;;;;53.08;24.17;;;;;;;;;;4985288;28;20050;-70
2023/12/19 00:15:22;;;;;;;53.05;23.40;;;;;;;;;;4984964;28;20054;-70
2023/12/19 00:17:48;;;;;;;51.28;23.92;;;;;;;;;;4985423;28;20038;-70
2023/12/19 00:20:14;;;;;;;52.60;23.02;;;;;;;;;;5002568;28;20050;-70
2023/12/19 00:22:40;;;;;;;52.78;22.98;;;;;;;;;;5000886;28;20050;-70
2023/12/19 00:25:06;;;;;;;48.42;23.05;;;;;;;;;;4984715;28;20053;-70
2023/12/19 00:27:32;;;;;;;44.70;22.77;;;;;;;;;;4984913;28;20598;-70
2023/12/19 00:29:59;;;;;;;48.42;22.33;;;;;;;;;;4984544;28;20157;-70
2023/12/19 00:32:24;;;;;;;46.83;22.45;;;;;;;;;;5002664;28;20046;-70
2023/12/19 00:34:50;;;;;;;46.85;22.70;;;;;;;;;;5002288;28;20042;-70
2023/12/19 00:37:16;;;;;;;48.08;23.48;;;;;;;;;;4985031;28;20572;-70
2023/12/19 00:39:42;;;;;;;53.88;24.88;;;;;;;;;;4984523;28;20048;-70
2023/12/19 00:42:08;;;;;;;47.60;24.13;;;;;;;;;;5002625;28;20565;-70
2023/12/19 00:44:37;;;;;;;50.80;23.77;;;;;;;;;;4984358;28;20053;-70
2023/12/19 00:47:03;;;;;;;50.20;24.10;;;;;;;;;;4982946;28;20077;-70
2023/12/19 00:49:30;;;;;;;44.47;21.75;;;;;;;;;;5002629;28;20050;-70
2023/12/19 00:51:56;;;;;;;43.22;22.15;;;;;;;;;;4984107;28;20141;-70
2023/12/19 00:54:22;;;;;;;44.17;22.30;;;;;;;;;;4984732;28;20056;-70
2023/12/19 00:56:48;;;;;;;45.15;21.50;;;;;;;;;;5001971;28;20056;-70
2023/12/19 00:59:14;;;;;;;48.60;23.65;;;;;;;;;;4968287;28;20394;-70
2023/12/19 01:01:40;;;;;;;42.28;22.52;;;;;;;;;;4984335;28;20056;-70
2023/12/19 01:04:09;;;;;;;48.13;23.63;;;;;;;;;;4984541;28;20046;-70
2023/12/19 01:06:36;;;;;;;43.25;22.65;;;;;;;;;;4984205;28;20049;-70
2023/12/19 01:09:02;;;;;;;41.47;22.30;;;;;;;;;;4984429;28;20182;-70
2023/12/19 01:11:28;;;;;;;41.92;21.45;;;;;;;;;;4984137;28;20045;-70
2023/12/19 01:13:54;;;;;;;41.83;21.15;;;;;;;;;;4983602;28;20123;-71
2023/12/19 01:16:20;;;;;;;41.90;21.58;;;;;;;;;;4984706;28;20154;-70
2023/12/19 01:18:46;;;;;;;39.15;20.92;;;;;;;;;;4984497;28;20892;-70
2023/12/19 01:21:12;;;;;;;45.03;20.63;;;;;;;;;;4984158;28;20050;-70
2023/12/19 01:23:39;;;;;;;37.65;20.45;;;;;;;;;;4984334;28;20045;-70
2023/12/19 01:26:05;;;;;;;38.03;20.90;;;;;;;;;;4984340;28;20113;-70
2023/12/19 01:28:31;;;;;;;39.28;21.35;;;;;;;;;;4984299;28;20053;-70
2023/12/19 01:30:57;;;;;;;35.63;18.23;;;;;;;;;;4984149;28;20052;-70
2023/12/19 01:33:23;;;;;;;42.95;19.95;;;;;;;;;;4984780;28;20049;-70
2023/12/19 01:35:50;;;;;;;38.42;20.05;;;;;;;;;;4983531;28;20034;-70
2023/12/19 01:38:16;;;;;;;45.05;22.85;;;;;;;;;;4987967;28;20048;-70
2023/12/19 01:40:42;;;;;;;38.97;21.38;;;;;;;;;;4987575;28;20050;-70
2023/12/19 01:43:19;;;;;;;44.92;22.40;;;;;;;;;;4987266;28;20046;-70
2023/12/19 01:45:45;;;;;;;40.70;21.50;;;;;;;;;;4987847;28;20042;-70
2023/12/19 01:48:11;;;;;;;44.35;22.33;;;;;;;;;;5005585;28;20165;-70
2023/12/19 01:50:37;;;;;;;44.70;21.42;;;;;;;;;;4986835;28;20119;-70
2023/12/19 01:53:04;;;;;;;44.15;21.50;;;;;;;;;;5005028;28;20119;-70
2023/12/19 01:55:30;;;;;;;37.13;21.52;;;;;;;;;;4987062;28;20048;-70
2023/12/19 01:57:56;;;;;;;40.03;19.70;;;;;;;;;;5005284;28;20114;-70
2023/12/19 02:00:23;;;;;;;46.83;23.08;;;;;;;;;;4987569;28;20061;-70
2023/12/19 02:02:52;;;;;;;46.97;21.75;;;;;;;;;;4986982;28;20050;-70
2023/12/19 02:05:19;;;;;;;41.33;20.63;;;;;;;;;;4986798;28;20053;-70
2023/12/19 02:07:45;;;;;;;42.85;20.05;;;;;;;;;;4970706;28;20049;-70
2023/12/19 02:10:11;;;;;;;44.30;21.90;;;;;;;;;;4987123;28;20112;-70
2023/12/19 02:12:38;;;;;;;51.45;24.25;;;;;;;;;;5004693;28;20046;-70
2023/12/19 02:15:05;;;;;;;42.40;22.83;;;;;;;;;;5004082;28;20073;-70
2023/12/19 02:17:31;;;;;;;42.45;22.17;;;;;;;;;;4987200;28;20445;-70
2023/12/19 02:19:57;;;;;;;47.20;22.67;;;;;;;;;;4986885;28;20045;-70
2023/12/19 02:22:23;;;;;;;42.80;21.63;;;;;;;;;;4986997;28;20065;-70
2023/12/19 02:24:49;;;;;;;38.33;19.98;;;;;;;;;;4986208;28;20509;-70
2023/12/19 02:27:15;;;;;;;38.40;19.60;;;;;;;;;;4970667;28;20062;-70
2023/12/19 02:29:41;;;;;;;42.95;21.35;;;;;;;;;;4986670;28;20052;-70
2023/12/19 02:32:07;;;;;;;37.33;19.77;;;;;;;;;;5000627;28;20054;-70
2023/12/19 02:34:33;;;;;;;34.13;19.67;;;;;;;;;;5004186;28;20117;-70
2023/12/19 02:36:59;;;;;;;33.95;20.60;;;;;;;;;;4986802;28;20603;-70
2023/12/19 02:39:25;;;;;;;29.95;17.48;;;;;;;;;;4986189;28;20046;-70
2023/12/19 02:41:51;;;;;;;29.45;17.58;;;8.20;99.90;;;;;;4986480;28;20053;-70
2023/12/19 02:44:17;;;;;;;33.35;17.88;;;;;;;;;;4985946;28;20049;-70
2023/12/19 02:46:43;;;;;;;31.50;17.70;;;;;;;;;;4985674;28;20125;-70
2023/12/19 02:49:09;;;;;;;30.95;16.55;;;;;;;;;;4986119;28;20408;-70
2023/12/19 02:51:35;;;;;;;32.78;17.23;;;;;;;;;;4969710;28;20054;-70
2023/12/19 02:54:01;;;;;;;25.40;14.93;;;;;;;;;;4986129;28;20053;-70
2023/12/19 02:56:32;;;;;;;27.08;15.40;;;;;;;;;;4969446;28;20144;-70
2023/12/19 02:58:58;;;;;;;28.15;15.98;;;;;;;;;;5003777;28;20386;-70
2023/12/19 03:01:24;;;;;;;24.45;15.35;;;;;;;;;;4986251;28;20049;-70
2023/12/19 03:03:50;;;;;;;26.05;14.85;;;;;;;;;;5003799;28;20505;-70
2023/12/19 03:06:16;;;;;;;23.38;14.75;;;;;;;;;;4985925;28;20117;-70
2023/12/19 03:08:46;;;;;;;24.63;14.45;;;;;;;;;;4986106;28;20049;-70
2023/12/19 03:11:15;;;;;;;22.95;13.10;;;;;;;;;;4980004;28;20070;-70
2023/12/19 03:13:41;;;;;;;25.02;14.18;;;;;;;;;;5003094;28;20152;-70
2023/12/19 03:16:07;;;;;;;28.02;14.52;;;;;;;;;;4985605;28;20054;-70
2023/12/19 03:18:33;;;;;;;25.77;14.43;;;;;;;;;;4985765;28;20050;-70
2023/12/19 03:20:59;;;;;;;22.52;13.23;;;;;;;;;;4985725;28;20045;-70
2023/12/19 03:23:27;;;;;;;27.27;14.85;;;;;;;;;;4985687;28;20053;-70
2023/12/19 03:25:53;;;;;;;25.85;14.40;;;;;;;;;;5002921;28;20136;-70
2023/12/19 03:28:19;;;;;;;28.17;13.88;;;;;;;;;;4985025;28;20081;-70
2023/12/19 03:30:45;;;;;;;25.27;14.75;;;;;;;;;;4969002;28;20144;-70
2023/12/19 03:33:11;;;;;;;24.27;14.20;;;;;;;;;;5003032;28;20137;-70
2023/12/19 03:35:37;;;;;;;27.30;15.32;;;;;;;;;;4985125;28;20535;-70
2023/12/19 03:38:03;;;;;;;29.33;15.55;;;;;;;;;;4985031;28;20046;-70
2023/12/19 03:40:29;;;;;;;26.23;15.48;;;;;;;;;;4985136;28;20046;-70
2023/12/19 03:42:55;;;;;;;23.27;14.05;;;;;;;;;;5002948;28;20041;-70
2023/12/19 03:45:21;;;;;;;27.98;16.20;;;;;;;;;;4985095;28;20053;-70
2023/12/19 03:47:47;;;;;;;27.88;16.17;;;;;;;;;;4983401;28;20556;-70
2023/12/19 03:50:13;;;;;;;27.88;16.45;;;;;;;;;;4985163;28;20045;-70
2023/12/19 03:52:39;;;;;;;26.98;16.80;;;;;;;;;;4985064;28;20050;-70
2023/12/19 03:55:05;;;;;;;25.67;16.70;;;;;;;;;;4985253;28;20057;-70
2023/12/19 03:57:31;;;;;;;32.10;16.38;;;;;;;;;;4985287;28;20046;-70
2023/12/19 03:59:57;;;;;;;28.10;15.32;;;;;;;;;;5001638;28;20044;-70
2023/12/19 04:02:23;;;;;;;26.02;16.00;;;;;;;;;;4984754;28;20049;-70
2023/12/19 04:04:50;;;;;;;28.10;16.02;;;;;;;;;;4984805;28;20046;-70
2023/12/19 04:07:16;;;;;;;27.85;16.15;;;;;;;;;;4984434;28;20474;-70
2023/12/19 04:09:42;;;;;;;26.55;15.23;;;;;;;;;;4979170;28;20161;-70
2023/12/19 04:12:09;;;;;;;29.63;15.82;;;;;;;;;;4984204;28;20053;-70
2023/12/19 04:14:35;;;;;;;28.48;15.98;;;;;;;;;;4983553;28;20058;-70
2023/12/19 04:17:01;;;;;;;22.48;14.38;;;;;;;;;;4994540;28;20563;-70
2023/12/19 04:19:28;;;;;;;27.35;14.93;;;;;;;;;;4984634;28;20135;-70
2023/12/19 04:21:56;;;;;;;24.92;15.70;;;;;;;;;;4984545;28;20576;-70
2023/12/19 04:24:22;;;;;;;23.50;14.02;;;;;;;;;;4984587;28;20054;-70
2023/12/19 04:26:48;;;;;;;23.00;12.95;;;;;;;;;;4984514;28;20045;-70
2023/12/19 04:29:15;;;;;;;23.98;13.63;;;;;;;;;;4984805;28;20397;-70
2023/12/19 04:31:41;;;;;;;19.30;12.35;;;;;;;;;;5002587;28;20046;-70
2023/12/19 04:34:07;;;;;;;22.67;12.95;;;;;;;;;;4968177;28;20042;-70
2023/12/19 04:36:33;;;;;;;19.38;11.55;;;;;;;;;;4981234;28;20046;-70
2023/12/19 04:38:59;;;;;;;17.92;10.07;;;;;;;;;;4984635;28;20046;-70
2023/12/19 04:41:26;;;;;;;19.85;12.23;;;;;;;;;;5002552;28;20046;-70
2023/12/19 04:43:52;;;;;;;19.83;11.50;;;;;;;;;;4984280;28;20096;-70
2023/12/19 04:46:18;;;;;;;17.45;10.63;;;;;;;;;;4984691;28;20100;-70
2023/12/19 04:48:44;;;;;;;20.95;13.30;;;;;;;;;;4984584;28;20041;-70
2023/12/19 04:51:18;;;;;;;18.52;10.85;;;;;;;;;;4984851;28;20082;-70
2023/12/19 04:53:45;;;;;;;21.33;11.55;;;;;;;;;;4983351;28;20042;-70
2023/12/19 04:56:11;;;;;;;18.05;10.85;;;;;;;;;;4984282;28;20100;-70
2023/12/19 04:58:37;;;;;;;20.52;11.65;;;;;;;;;;4984705;28;20053;-70
2023/12/19 05:01:03;;;;;;;18.67;11.32;;;;;;;;;;4984224;28;20046;-70
2023/12/19 05:03:29;;;;;;;22.67;11.40;;;;;;;;;;5002070;28;20045;-70
2023/12/19 05:05:55;;;;;;;20.35;11.73;;;;;;;;;;4967739;28;20053;-70
2023/12/19 05:08:21;;;;;;;16.98;9.95;;;;;;;;;;4984281;28;20050;-70
2023/12/19 05:10:48;;;;;;;22.25;11.82;;;;;;;;;;5003715;28;20453;-70
2023/12/19 05:13:14;;;;;;;23.27;11.95;;;;;;;;;;4988076;28;20131;-70
2023/12/19 05:15:40;;;;;;;19.42;11.02;;;;;;;;;;4987848;28;20053;-70
2023/12/19 05:18:06;;;;;;;16.80;10.05;;;;;;;;;;4988400;28;20053;-70
2023/12/19 05:20:32;;;;;;;18.73;11.25;;;;;;;;;;5005895;28;20053;-70
2023/12/19 05:23:00;;;;;;;15.50;10.40;;;;;;;;;;4988099;28;20584;-70
2023/12/19 05:25:26;;;;;;;17.38;10.30;;;;;;;;;;4971927;28;20050;-70
2023/12/19 05:27:52;;;;;;;18.85;10.93;;;;;;;;;;4987823;28;20054;-70
2023/12/19 05:30:18;;;;;;;18.65;10.50;;;;;;;;;;4988354;28;20163;-70
2023/12/19 05:32:44;;;;;;;15.48;9.52;;;;;;;;;;4987547;28;20834;-70
2023/12/19 05:35:10;;;;;;;13.93;9.23;;;;;;;;;;4987584;28;20042;-70
2023/12/19 05:37:36;;;;;;;14.90;8.68;;;8.50;99.90;;;;;;4987431;28;20034;-70
2023/12/19 05:40:02;;;;;;;15.25;8.95;;;;;;;;;;4987806;28;20060;-70
2023/12/19 05:42:28;;;;;;;14.65;9.50;;;;;;;;;;4987820;28;20118;-70
2023/12/19 05:44:54;;;;;;;12.70;7.97;;;;;;;;;;5005436;28;20129;-70
2023/12/19 05:47:20;;;;;;;11.93;8.70;;;;;;;;;;5005128;28;20049;-70
2023/12/19 05:49:45;;;;;;;14.45;8.40;;;8.70;99.90;;;;;;4987492;28;20038;-70
2023/12/19 05:52:11;;;;;;;14.88;9.43;;;8.40;99.90;;;;;;5005112;28;20042;-70
2023/12/19 05:54:37;;;;;;;15.57;7.93;;;;;;;;;;4971341;28;20128;-70
2023/12/19 05:57:03;;;;;;;11.65;7.60;;;;;;;;;;5005076;28;20042;-70
2023/12/19 05:59:29;;;;;;;11.23;7.95;;;;;;;;;;4987191;28;20042;-70
2023/12/19 06:01:55;;;;;;;11.65;6.20;;;;;;;;;;4987312;28;20602;-70
2023/12/19 06:04:21;;;;;;;10.10;6.75;;;8.40;99.90;;;;;;5001567;28;20045;-70
2023/12/19 06:06:46;;;;;;;9.75;6.00;;;8.50;99.90;;;;;;4987039;28;20045;-70
2023/12/19 06:09:12;;;;;;;9.93;6.72;;;;;;;;;;4970482;28;20489;-70
2023/12/19 06:11:39;;;;;;;9.20;5.93;;;;;;;;;;4986874;28;20050;-70
2023/12/19 06:14:06;;;;;;;9.30;5.78;;;;;;;;;;4986798;28;20100;-70
2023/12/19 06:16:32;;;;;;;8.88;6.20;;;;;;;;;;4999962;28;20053;-70
2023/12/19 06:18:59;;;;;;;8.93;6.20;;;;;;;;;;4987186;28;20057;-70
2023/12/19 06:21:25;;;;;;;8.88;6.28;;;;;;;;;;4987022;28;20089;-70
2023/12/19 06:23:51;;;;;;;7.78;5.75;;;;;;;;;;4986153;28;20090;-70
2023/12/19 06:26:16;;;;;;;10.27;6.25;;;8.80;99.90;;;;;;5004352;28;20092;-70
2023/12/19 06:28:43;;;;;;;8.35;5.85;;;;;;;;;;4986253;28;20041;-70
2023/12/19 06:31:09;;;;;;;9.55;6.57;;;;;;;;;;4986940;28;20598;-70
2023/12/19 06:33:36;;;;;;;9.90;5.80;;;;;;;;;;4999328;28;20153;-70
2023/12/19 06:36:05;;;;;;;9.18;6.10;;;8.60;99.90;;;;;;4986806;28;21204;-70
2023/12/19 06:38:32;;;;;;;8.32;5.40;;;;;;;;;;4983890;28;20045;-70
2023/12/19 06:40:58;;;;;;;9.68;6.40;;;;;;;;;;4986939;28;20038;-70
2023/12/19 06:43:24;;;;;;;9.40;6.35;;;;;;;;;;5004369;28;20121;-70
2023/12/19 06:45:50;;;;;;;9.77;6.82;;;;;;;;;;4986638;28;20107;-70
2023/12/19 06:48:18;;;;;;;10.73;6.70;;;;;;;;;;4986484;28;20042;-70
2023/12/19 06:50:44;;;;;;;8.75;6.30;;;;;;;;;;5004156;28;20526;-70
2023/12/19 06:53:10;;;;;;;9.27;6.63;;;;;;;;;;4986075;28;20061;-70
2023/12/19 06:55:36;;;;;;;10.60;6.65;;;;;;;;;;5003414;28;20041;-70
2023/12/19 06:58:02;;;;;;;9.25;6.57;;;;;;;;;;4986048;28;20442;-70
2023/12/19 07:00:28;;;;;;;9.93;6.03;;;8.40;99.90;;;;;;4986631;28;20041;-70
2023/12/19 07:02:54;;;;;;;10.27;6.65;;;;;;;;;;4986904;28;20775;-70
2023/12/19 07:05:20;;;;;;;9.30;6.20;;;;;;;;;;4986590;28;20049;-70
2023/12/19 07:07:51;;;;;;;9.32;6.55;;;;;;;;;;4982395;28;20080;-70
2023/12/19 07:10:17;;;;;;;8.07;5.35;;;;;;;;;;4986549;28;20057;-70
2023/12/19 07:12:43;;;;;;;9.38;6.50;;;;;;;;;;4986219;28;20050;-70
2023/12/19 07:15:09;;;;;;;8.40;6.32;;;;;;;;;;4985983;28;20564;-70
2023/12/19 07:17:35;;;;;;;9.93;7.20;;;;;;;;;;4985976;28;20128;-70
2023/12/19 07:20:02;;;;;;;7.82;5.97;;;;;;;;;;5004088;28;20851;-70
2023/12/19 07:22:28;;;;;;;8.38;6.18;;;;;;;;;;4984204;28;20049;-70
2023/12/19 07:24:55;;;;;;;8.80;6.57;;;;;;;;;;4981687;28;20046;-70
2023/12/19 07:27:21;;;;;;;9.52;6.88;;;;;;;;;;4982393;28;20053;-70
2023/12/19 07:29:47;;;;;;;10.82;6.85;;;;;;;;;;4985726;28;20049;-70
2023/12/19 07:32:13;;;;;;;8.45;6.78;;;;;;;;;;4986526;28;20520;-69
2023/12/19 07:34:40;;;;;;;8.75;6.05;;;;;;;;;;4984952;28;20038;-69
2023/12/19 07:37:06;;;;;;;11.15;7.35;;;;;;;;;;5003824;28;20560;-69
2023/12/19 07:39:32;;;;;;;10.52;7.53;;;;;;;;;;4985914;28;20125;-69
2023/12/19 07:41:58;;;;;;;9.25;6.97;;;;;;;;;;4985722;28;20046;-69
2023/12/19 07:44:24;;;;;;;11.27;7.47;;;8.60;99.90;;;;;;4986338;28;20417;-70
2023/12/19 07:46:50;;;;;;;10.93;7.15;;;;;;;;;;5004128;28;20053;-69
2023/12/19 07:49:16;;;;;;;10.77;7.68;;;;;;;;;;4984658;28;20056;-69
2023/12/19 07:51:43;;;;;;;11.70;7.78;;;;;;;;;;4982745;28;20068;-69
2023/12/19 07:54:08;;;;;;;12.63;7.93;;;8.50;99.90;;;;;;4985303;28;20125;-69
2023/12/19 07:56:36;;;;;;;11.98;8.32;;;;;;;;;;4985176;28;20050;-69
2023/12/19 07:59:02;;;;;;;13.80;8.45;;;;;;;;;;4982884;28;20080;-69
2023/12/19 08:01:28;;;;;;;11.77;7.47;;;;;;;;;;5003926;28;20152;-69
2023/12/19 08:03:53;;;;;;;10.60;7.80;;;8.70;99.90;;;;;;4984846;28;20136;-69
2023/12/19 08:06:19;;;;;;;12.70;7.93;;;;;;;;;;5003620;28;20077;-70
2023/12/19 08:08:49;;;;;;;12.70;8.00;;;;;;;;;;5002937;28;20037;-69
2023/12/19 08:11:15;;;;;;;13.60;9.38;;;;;;;;;;5002720;28;20049;-69
2023/12/19 08:13:41;;;;;;;15.77;10.07;;;;;;;;;;4985846;28;20042;-69
2023/12/19 08:16:07;;;;;;;13.30;8.65;;;;;;;;;;4984828;28;20088;-69
2023/12/19 08:18:33;;;;;;;14.35;9.07;;;;;;;;;;4985548;28;20077;-69
2023/12/19 08:20:59;;;;;;;14.10;9.50;;;;;;;;;;4985572;28;20042;-69
2023/12/19 08:23:25;;;;;;;12.98;8.93;;;;;;;;;;4985810;28;20038;-69
2023/12/19 08:25:52;;;;;;;11.98;8.35;;;;;;;;;;4975583;28;20133;-70
2023/12/19 08:28:18;;;;;;;13.32;9.05;;;;;;;;;;5003479;28;20111;-69
2023/12/19 08:30:44;;;;;;;11.85;8.43;;;;;;;;;;4985272;28;20046;-70
2023/12/19 08:33:10;;;;;;;14.85;9.23;;;8.80;99.90;;;;;;4976769;28;20391;-69
2023/12/19 08:35:36;;;;;;;12.73;8.85;;;;;;;;;;4985460;28;20044;-69
2023/12/19 08:38:02;;;;;;;13.90;9.07;;;;;;;;;;4985009;28;20052;-70
2023/12/19 08:40:28;;;;;;;13.90;9.40;;;;;;;;;;4985458;28;20376;-70
2023/12/19 08:42:54;;;;;;;12.13;8.85;;;;;;;;;;5003423;28;20049;-69
2023/12/19 08:45:23;;;;;;;12.45;8.23;;;8.90;99.90;;;;;;5002136;28;20048;-70
2023/12/19 08:47:50;;;;;;;13.90;9.10;;;;;;;;;;4989458;28;20042;-71
2023/12/19 08:50:15;;;;;;;13.15;9.20;;;8.90;99.90;;;;;;4971007;28;20592;-69
2023/12/19 08:52:42;;;;;;;11.82;8.70;;;;;;;;;;4980982;28;20046;-70
2023/12/19 08:55:12;;;;;;;13.20;8.88;;;;;;;;;;4986879;28;20061;-70
2023/12/19 08:57:45;;;;;;;14.52;9.38;;;;;;;;;;4988927;28;20608;-70
2023/12/19 09:00:12;;;;;;;12.82;8.80;;;;;;;;;;4988277;28;20112;-70
2023/12/19 09:02:42;;;;;;;14.38;9.52;;;;;;;;;;4988753;28;20115;-69
2023/12/19 09:05:08;;;;;;;14.45;9.32;;;;;;;;;;4988150;28;20535;-70
2023/12/19 09:07:34;;;;;;;16.05;9.60;;;;;;;;;;4988361;28;20049;-70
2023/12/19 09:10:00;;;;;;;15.02;10.25;;;9.30;99.90;;;;;;4988752;28;20104;-70
2023/12/19 09:12:26;;;;;;;15.30;9.70;;;;;;;;;;4988427;28;20573;-70
2023/12/19 09:14:52;;;;;;;14.77;9.50;;;;;;;;;;4985341;28;20054;-69
2023/12/19 09:17:18;;;;;;;13.38;9.25;;;;;;;;;;4985294;28;20050;-70
2023/12/19 09:19:44;;;;;;;11.95;8.32;;;;;;;;;;4985255;28;20586;-69
2023/12/19 09:22:10;;;;;;;12.38;8.38;;;;;;;;;;4976560;28;20116;-69
2023/12/19 09:24:36;;;;;;;14.90;9.25;;;9.20;99.90;;;;;;4984865;28;20093;-70
2023/12/19 09:27:02;;;;;;;13.93;9.32;;;;;;;;;;4985410;28;20058;-69
2023/12/19 09:29:28;;;;;;;14.27;8.88;;;;;;;;;;4984621;28;20066;-69
2023/12/19 09:31:54;;;;;;;14.93;8.10;;;;;;;;;;4986119;28;20046;-69
2023/12/19 09:34:20;;;;;;;12.20;8.13;;;;;;;;;;4984468;28;20061;-69
2023/12/19 09:36:46;;;;;;;13.85;9.25;;;9.20;99.90;;;;;;4980959;28;20046;-69
2023/12/19 09:39:14;;;;;;;12.02;7.57;;;;;;;;;;4984760;28;20061;-69
2023/12/19 09:41:41;;;;;;;14.05;8.90;;;;;;;;;;4976540;28;20046;-69
2023/12/19 09:44:07;;;;;;;11.77;7.50;;;;;;;;;;4984527;28;20057;-69
2023/12/19 09:46:34;;;;;;;11.27;7.43;;;;;;;;;;4985190;28;20497;-69
2023/12/19 09:49:02;;;;;;;9.13;6.47;;;;;;;;;;4984811;28;20046;-69
2023/12/19 09:51:30;;;;;;;10.30;6.97;;;;;;;;;;4985061;28;20532;-69
2023/12/19 09:53:56;;;;;;;11.60;6.90;;;;;;;;;;4984595;28;20050;-69
2023/12/19 09:56:22;;;;;;;8.40;5.43;;;;;;;;;;4984224;28;20054;-70
2023/12/19 09:58:49;;;;;;;9.25;6.20;;;;;;;;;;4984309;28;20129;-69
2023/12/19 10:01:18;;;;;;;7.80;5.57;;;;;;;;;;4985099;28;20413;-70
2023/12/19 10:03:45;;;;;;;9.10;5.88;;;;;;;;;;4985875;28;20089;-69
2023/12/19 10:06:11;;;;;;;6.80;4.88;;;;;;;;;;4986069;28;20062;-69
2023/12/19 10:08:46;;;;;;;8.10;4.22;;;;;;;;;;4984569;28;20122;-70
2023/12/19 10:11:18;;;;;;;6.47;4.43;;;;;;;;;;4985006;28;20046;-69
2023/12/19 10:13:48;;;;;;;6.15;4.38;;;;;;;;;;5000574;28;20046;-69
2023/12/19 10:16:18;;;;;;;6.97;4.78;;;;;;;;;;4976986;28;20505;-69
2023/12/19 10:18:44;;;;;;;5.60;4.20;;;;;;;;;;4968920;28;20038;-70
2023/12/19 10:21:11;;;;;;;5.22;4.00;;;;;;;;;;4973105;28;20057;-69
2023/12/19 10:23:38;;;;;;;7.40;4.70;;;;;;;;;;4972060;28;20042;-69
2023/12/19 10:26:04;;;;;;;7.05;5.07;;;;;;;;;;4954878;28;20096;-69
2023/12/19 10:28:32;;;;;;;7.95;5.28;;;;;;;;;;4968116;28;20042;-70
2023/12/19 10:31:07;;;;;;;7.78;5.70;;;;;;;;;;4967905;28;20120;-69
2023/12/19 10:33:33;;;;;;;;;;;;;;;;;;4985932;28;20100;-69
2023/12/19 10:35:59;;;;;;;10.43;5.50;;;;;;;;;;4968829;28;19934;-69
2023/12/19 10:38:25;;;;;;;7.78;5.72;;;;;;;;;;4967706;28;20042;-69
2023/12/19 10:41:06;;;;;;;8.25;5.47;;;;;;;;;;4967978;28;20065;-69
2023/12/19 10:43:38;;;;;;;8.77;5.85;;;;;;;;;;4963299;28;20464;-69
2023/12/19 10:46:06;;;;;;;8.57;5.82;;;;;;;;;;4967794;28;20568;-69
2023/12/19 10:48:32;;;;;;;9.05;6.60;;;;;;;;;;4964974;28;20853;-70
2023/12/19 10:50:59;;;;;;;10.52;7.13;;;9.50;99.90;;;;;;4967018;28;20042;-69
2023/12/19 10:53:26;;;;;;;9.80;6.85;;;;;;;;;;4970151;28;20054;-69
2023/12/19 10:55:54;;;;;;;9.02;6.00;;;;;;;;;;4967177;28;20050;-70
2023/12/19 10:58:21;;;;;;;11.07;7.47;;;;;;;;;;4967502;28;20038;-69
2023/12/19 11:00:50;;;;;;;10.43;7.32;;;;;;;;;;4967120;28;20049;-70
2023/12/19 11:03:25;;;;;;;9.27;6.65;;;;;;;;;;4984094;28;20125;-69
2023/12/19 11:05:51;;;;;;;10.38;7.10;;;;;;;;;;4966793;28;20046;-69
2023/12/19 11:08:19;;;;;;;10.43;6.88;;;;;;;;;;4966601;28;20053;-70
2023/12/19 11:10:58;;;;;;;10.55;7.97;;;;;;;;;;4964618;28;20042;-69
2023/12/19 11:13:27;;;;;;;11.45;7.75;;;;;;;;;;4966564;28;20072;-69
2023/12/19 11:16:00;;;;;;;11.10;8.40;;;;;;;;;;4978226;28;20089;-69
2023/12/19 11:18:43;;;;;;;12.43;8.75;;;;;;;;;;4982983;28;20046;-69
2023/12/19 11:21:13;;;;;;;11.20;8.02;;;;;;;;;;4981725;28;20046;-69
2023/12/19 11:24:02;;;;;;;12.15;8.65;;;9.30;99.90;;;;;;4984521;28;20553;-69
2023/12/19 11:26:38;;;;;;;12.80;8.88;;;;;;;;;;4980635;28;20153;-70
2023/12/19 11:29:04;;;;;;;14.88;10.20;;;;;;;;;;4978649;28;20053;-69
2023/12/19 11:31:30;;;;;;;13.90;9.52;;;;;;;;;;4982857;28;20055;-69
2023/12/19 11:34:03;;;;;;;13.82;9.50;;;;;;;;;;4984093;28;20049;-69
2023/12/19 11:36:29;;;;;;;15.23;10.25;;;;;;;;;;4983428;28;20042;-69
2023/12/19 11:39:19;;;;;;;13.30;9.27;;;;;;;;;;4979224;28;20050;-69
2023/12/19 11:41:45;;;;;;;13.48;9.45;;;;;;;;;;4974452;28;20191;-69
2023/12/19 11:44:31;;;;;;;14.07;9.93;;;;;;;;;;4981932;28;20046;-69
2023/12/19 11:47:16;;;;;;;14.95;9.50;;;;;;;;;;4977392;28;20851;-70
2023/12/19 11:49:42;;;;;;;11.15;8.98;;;;;;;;;;4982258;28;20061;-69
2023/12/19 11:52:08;;;;;;;11.05;8.50;;;;;;;;;;4981341;28;20221;-69
2023/12/19 11:54:34;;;;;;;12.70;8.30;;;;;;;;;;4983655;28;20104;-70
2023/12/19 11:57:01;;;;;;;12.73;7.70;;;;;;;;;;4965808;28;20038;-70
2023/12/19 11:59:47;;;;;;;11.45;7.88;;;;;;;;;;4982865;28;20054;-69
2023/12/19 12:02:13;;;;;;;10.25;8.27;;;;;;;;;;4980738;28;20306;-69
2023/12/19 12:04:39;;;;;;;11.85;8.50;;;;;;;;;;4979886;28;20462;-69
2023/12/19 12:07:05;;;;;;;10.35;7.45;;;;;;;;;;4981721;28;20060;-70
2023/12/19 12:09:31;;;;;;;11.80;8.10;;;;;;;;;;4981968;28;20057;-69
2023/12/19 12:11:57;;;;;;;9.70;7.53;;;;;;;;;;4983604;28;20109;-70
2023/12/19 12:14:24;;;;;;;7.82;6.25;;;;;;;;;;4987029;28;20100;-69
2023/12/19 12:16:51;;;;;;;9.27;7.28;;;;;;;;;;4985365;28;20046;-69
2023/12/19 12:19:18;;;;;;;9.65;6.68;;;;;;;;;;4985064;28;20111;-70
2023/12/19 12:21:49;;;;;;;8.35;6.40;;;;;;;;;;4985070;28;20108;-69
2023/12/19 12:24:20;;;;;;;8.02;6.43;;;;;;;;;;4985689;28;20050;-69
2023/12/19 12:26:46;;;;;;;9.43;6.43;;;9.50;99.90;;;;;;4981728;28;20054;-70
2023/12/19 12:29:12;;;;;;;10.15;6.88;;;;;;;;;;4985477;28;20432;-69
2023/12/19 12:31:39;;;;;;;8.13;6.18;;;;;;;;;;4985600;28;20411;-69
2023/12/19 12:34:05;;;;;;;8.82;6.57;;;;;;;;;;4985507;28;20560;-70
2023/12/19 12:36:31;;;;;;;8.30;6.45;;;;;;;;;;4985323;28;20042;-70
2023/12/19 12:38:57;;;;;;;7.82;6.35;;;;;;;;;;4985362;28;20064;-70
2023/12/19 12:41:23;;;;;;;8.98;6.57;;;;;;;;;;4985308;28;20045;-70
2023/12/19 12:43:54;;;;;;;7.88;6.18;;;;;;;;;;4985359;28;20468;-70
2023/12/19 12:46:24;;;;;;;7.78;5.88;;;;;;;;;;4985159;28;20069;-70
2023/12/19 12:48:53;;;;;;;7.75;5.97;;;;;;;;;;4984214;28;20042;-70
2023/12/19 12:51:22;;;;;;;9.18;6.72;;;;;;;;;;4984953;28;20042;-70
2023/12/19 12:53:55;;;;;;;9.90;6.97;;;;;;;;;;4984873;28;20053;-70
2023/12/19 12:56:27;;;;;;;8.18;6.57;;;;;;;;;;4969264;28;20052;-70
2023/12/19 12:58:58;;;;;;;8.38;5.78;;;;;;;;;;4985013;28;20042;-70
2023/12/19 13:01:24;;;;;;;11.15;6.60;;;;;;;;;;4985080;28;20523;-70
2023/12/19 13:03:50;;;;;;;9.75;6.72;;;;;;;;;;4985053;28;20038;-70
2023/12/19 13:06:16;;;;;;;8.63;5.97;;;;;;;;;;5002155;28;20053;-71
2023/12/19 13:08:42;;;;;;;8.45;6.63;;;;;;;;;;4984432;28;20591;-70
2023/12/19 13:11:08;;;;;;;8.35;6.20;;;;;;;;;;4980643;28;20046;-70
2023/12/19 13:13:34;;;;;;;8.70;5.90;;;;;;;;;;4984645;28;20117;-70
2023/12/19 13:16:02;;;;;;;7.32;5.68;;;;;;;;;;4982129;28;20776;-70
2023/12/19 13:18:28;;;;;;;8.30;6.15;;;;;;;;;;4995858;28;20046;-70
2023/12/19 13:20:54;;;;;;;7.05;5.72;;;;;;;;;;4984857;28;20037;-70
2023/12/19 13:23:20;;;;;;;5.68;4.68;;;;;;;;;;5002546;28;20049;-70
2023/12/19 13:25:48;;;;;;;6.13;4.90;;;;;;;;;;4983871;28;20045;-70
2023/12/19 13:28:14;;;;;;;6.30;4.53;;;;;;;;;;4984564;28;20108;-70
2023/12/19 13:30:41;;;;;;;5.85;3.95;;;;;;;;;;4984633;28;20065;-70
2023/12/19 13:33:11;;;;;;;3.83;3.33;;;;;;;;;;4988574;28;20049;-70
2023/12/19 13:35:37;;;;;;;5.32;3.75;;;;;;;;;;4988102;28;20092;-70
2023/12/19 13:38:04;;;;;;;4.35;3.35;;;;;;;;;;4988774;28;20519;-70
2023/12/19 13:40:30;;;;;;;5.50;3.40;;;;;;;;;;4987898;28;20073;-70
2023/12/19 13:42:57;;;;;;;4.65;2.70;;;;;;;;;;4988384;28;20777;-70
2023/12/19 13:45:27;;;;;;;4.07;2.80;;;;;;;;;;4988358;28;20137;-70
2023/12/19 13:47:53;;;;;;;4.78;2.72;;;;;;;;;;4988615;28;20057;-70
2023/12/19 13:50:20;;;;;;;3.00;2.60;;;;;;;;;;4988865;28;20078;-70
2023/12/19 13:52:46;;;;;;;3.58;2.83;;;;;;;;;;4989036;28;20098;-69
2023/12/19 13:55:12;;;;;;;3.10;2.35;;;;;;;;;;4987535;28;20054;-70
2023/12/19 13:57:39;;;;;;;3.40;2.55;;;;;;;;;;4988500;28;20050;-70
2023/12/19 14:00:05;;;;;;;2.25;1.95;;;;;;;;;;4971902;28;20050;-70
2023/12/19 14:02:31;;;;;;;2.80;2.30;;;;;;;;;;4988432;28;20049;-70
2023/12/19 14:04:57;;;;;;;2.88;2.15;;;;;;;;;;5006190;28;20042;-70
2023/12/19 14:07:23;;;;;;;1.45;1.20;;;;;;;;;;4988048;28;20045;-70
2023/12/19 14:09:49;;;;;;;2.60;1.90;;;;;;;;;;4988634;28;20099;-70
2023/12/19 14:12:16;;;;;;;4.32;2.00;;;;;;;;;;4987950;28;20417;-70
2023/12/19 14:14:42;;;;;;;3.08;1.85;;;;;;;;;;4986621;28;20054;-70
2023/12/19 14:17:08;;;;;;;2.00;1.80;;;;;;;;;;4988235;28;20037;-70
2023/12/19 14:19:35;;;;;;;2.53;1.30;;;;;;;;;;4987909;28;20052;-70